sensor_id;sensor_type;location;lat;lon;timestamp;P1;durP1;ratioP1;P2;durP2;ratioP2
8044;SDS011;4065;48.754;9.982;2024-03-02T00:01:06;41.13;;;27.83;;
8044;SDS011;4065;48.754;9.982;2024-03-02T00:04:28;38.83;;;26.48;;
8044;SDS011;4065;48.754;9.982;2024-03-02T00:07:52;40.97;;;27.23;;
8044;SDS011;4065;48.754;9.982;2024-03-02T00:11:14;41.45;;;27.67;;
8044;SDS011;4065;48.754;9.982;2024-03-02T00:14:36;42.25;;;28.02;;
8044;SDS011;4065;48.754;9.982;2024-03-02T00:18:00;46.10;;;28.40;;
8044;SDS011;4065;48.754;9.982;2024-03-02T00:21:24;43.05;;;28.30;;
8044;SDS011;4065;48.754;9.982;2024-03-02T00:24:47;49.78;;;29.05;;
8044;SDS011;4065;48.754;9.982;2024-03-02T00:28:11;51.85;;;30.95;;
8044;SDS011;4065;48.754;9.982;2024-03-02T00:31:36;48.88;;;30.17;;
8044;SDS011;4065;48.754;9.982;2024-03-02T00:35:02;45.25;;;28.80;;
8044;SDS011;4065;48.754;9.982;2024-03-02T00:38:26;53.13;;;30.75;;
8044;SDS011;4065;48.754;9.982;2024-03-02T00:41:49;51.00;;;30.95;;
8044;SDS011;4065;48.754;9.982;2024-03-02T00:45:11;49.05;;;30.25;;
8044;SDS011;4065;48.754;9.982;2024-03-02T00:48:33;49.35;;;29.73;;
8044;SDS011;4065;48.754;9.982;2024-03-02T00:51:57;52.85;;;30.70;;
8044;SDS011;4065;48.754;9.982;2024-03-02T00:55:20;57.88;;;34.58;;
8044;SDS011;4065;48.754;9.982;2024-03-02T00:58:42;62.03;;;35.60;;
8044;SDS011;4065;48.754;9.982;2024-03-02T01:02:04;51.40;;;31.15;;
8044;SDS011;4065;48.754;9.982;2024-03-02T01:05:26;50.42;;;30.58;;
8044;SDS011;4065;48.754;9.982;2024-03-02T01:08:49;52.20;;;31.35;;
8044;SDS011;4065;48.754;9.982;2024-03-02T01:12:11;52.90;;;32.28;;
8044;SDS011;4065;48.754;9.982;2024-03-02T01:15:33;47.72;;;29.58;;
8044;SDS011;4065;48.754;9.982;2024-03-02T01:18:55;49.17;;;30.33;;
8044;SDS011;4065;48.754;9.982;2024-03-02T01:22:17;48.92;;;30.10;;
8044;SDS011;4065;48.754;9.982;2024-03-02T01:25:46;52.33;;;31.25;;
8044;SDS011;4065;48.754;9.982;2024-03-02T01:29:08;53.22;;;30.88;;
8044;SDS011;4065;48.754;9.982;2024-03-02T01:32:30;51.35;;;31.30;;
8044;SDS011;4065;48.754;9.982;2024-03-02T01:35:52;55.10;;;31.70;;
8044;SDS011;4065;48.754;9.982;2024-03-02T01:39:14;49.33;;;29.10;;
8044;SDS011;4065;48.754;9.982;2024-03-02T01:42:38;54.80;;;33.00;;
8044;SDS011;4065;48.754;9.982;2024-03-02T01:46:00;50.67;;;30.15;;
8044;SDS011;4065;48.754;9.982;2024-03-02T01:49:22;56.95;;;33.63;;
8044;SDS011;4065;48.754;9.982;2024-03-02T01:52:44;48.35;;;30.25;;
8044;SDS011;4065;48.754;9.982;2024-03-02T01:56:06;52.78;;;32.97;;
8044;SDS011;4065;48.754;9.982;2024-03-02T01:59:32;54.33;;;31.48;;
8044;SDS011;4065;48.754;9.982;2024-03-02T02:02:54;53.17;;;31.50;;
8044;SDS011;4065;48.754;9.982;2024-03-02T02:06:18;59.17;;;33.17;;
8044;SDS011;4065;48.754;9.982;2024-03-02T02:09:40;52.30;;;31.77;;
8044;SDS011;4065;48.754;9.982;2024-03-02T02:13:02;54.90;;;32.50;;
8044;SDS011;4065;48.754;9.982;2024-03-02T02:16:26;55.55;;;30.63;;
8044;SDS011;4065;48.754;9.982;2024-03-02T02:19:48;48.95;;;31.25;;
8044;SDS011;4065;48.754;9.982;2024-03-02T02:23:11;50.75;;;30.02;;
8044;SDS011;4065;48.754;9.982;2024-03-02T02:26:33;52.13;;;31.15;;
8044;SDS011;4065;48.754;9.982;2024-03-02T02:29:55;48.30;;;30.15;;
8044;SDS011;4065;48.754;9.982;2024-03-02T02:33:17;51.92;;;29.95;;
8044;SDS011;4065;48.754;9.982;2024-03-02T02:36:39;49.10;;;28.88;;
8044;SDS011;4065;48.754;9.982;2024-03-02T02:40:03;51.28;;;28.98;;
8044;SDS011;4065;48.754;9.982;2024-03-02T02:43:26;45.63;;;27.80;;
8044;SDS011;4065;48.754;9.982;2024-03-02T02:46:48;47.08;;;28.95;;
8044;SDS011;4065;48.754;9.982;2024-03-02T02:50:10;46.50;;;28.85;;
8044;SDS011;4065;48.754;9.982;2024-03-02T02:53:32;47.25;;;29.55;;
8044;SDS011;4065;48.754;9.982;2024-03-02T02:56:57;45.20;;;27.83;;
8044;SDS011;4065;48.754;9.982;2024-03-02T03:00:19;46.95;;;28.00;;
8044;SDS011;4065;48.754;9.982;2024-03-02T03:03:43;45.55;;;26.75;;
8044;SDS011;4065;48.754;9.982;2024-03-02T03:07:05;48.58;;;28.63;;
8044;SDS011;4065;48.754;9.982;2024-03-02T03:10:27;53.35;;;30.23;;
8044;SDS011;4065;48.754;9.982;2024-03-02T03:13:51;46.78;;;27.40;;
8044;SDS011;4065;48.754;9.982;2024-03-02T03:17:14;49.33;;;28.65;;
8044;SDS011;4065;48.754;9.982;2024-03-02T03:20:36;49.03;;;29.02;;
8044;SDS011;4065;48.754;9.982;2024-03-02T03:23:58;49.33;;;28.25;;
8044;SDS011;4065;48.754;9.982;2024-03-02T03:27:20;51.53;;;29.25;;
8044;SDS011;4065;48.754;9.982;2024-03-02T03:30:43;46.10;;;28.35;;
8044;SDS011;4065;48.754;9.982;2024-03-02T03:34:05;43.83;;;26.17;;
8044;SDS011;4065;48.754;9.982;2024-03-02T03:37:27;47.45;;;27.92;;
8044;SDS011;4065;48.754;9.982;2024-03-02T03:40:53;45.78;;;27.42;;
8044;SDS011;4065;48.754;9.982;2024-03-02T03:44:15;47.83;;;28.98;;
8044;SDS011;4065;48.754;9.982;2024-03-02T03:47:39;47.00;;;27.30;;
8044;SDS011;4065;48.754;9.982;2024-03-02T03:51:00;49.13;;;28.20;;
8044;SDS011;4065;48.754;9.982;2024-03-02T03:54:22;48.05;;;29.48;;
8044;SDS011;4065;48.754;9.982;2024-03-02T03:57:44;49.53;;;28.98;;
8044;SDS011;4065;48.754;9.982;2024-03-02T04:01:06;55.60;;;29.77;;
8044;SDS011;4065;48.754;9.982;2024-03-02T04:04:30;52.38;;;31.20;;
8044;SDS011;4065;48.754;9.982;2024-03-02T04:07:51;48.83;;;28.35;;
8044;SDS011;4065;48.754;9.982;2024-03-02T04:11:13;50.65;;;28.23;;
8044;SDS011;4065;48.754;9.982;2024-03-02T04:14:35;78.75;;;28.73;;
8044;SDS011;4065;48.754;9.982;2024-03-02T04:17:58;63.42;;;29.33;;
8044;SDS011;4065;48.754;9.982;2024-03-02T04:21:21;90.05;;;30.48;;
8044;SDS011;4065;48.754;9.982;2024-03-02T04:24:43;117.63;;;31.98;;
8044;SDS011;4065;48.754;9.982;2024-03-02T04:28:05;104.13;;;30.35;;
8044;SDS011;4065;48.754;9.982;2024-03-02T04:31:27;82.05;;;29.48;;
8044;SDS011;4065;48.754;9.982;2024-03-02T04:34:49;164.80;;;33.53;;
8044;SDS011;4065;48.754;9.982;2024-03-02T04:38:12;61.83;;;30.73;;
8044;SDS011;4065;48.754;9.982;2024-03-02T04:41:34;65.22;;;33.47;;
8044;SDS011;4065;48.754;9.982;2024-03-02T04:44:56;60.97;;;30.38;;
8044;SDS011;4065;48.754;9.982;2024-03-02T04:48:18;62.58;;;32.00;;
8044;SDS011;4065;48.754;9.982;2024-03-02T04:51:40;73.93;;;33.25;;
8044;SDS011;4065;48.754;9.982;2024-03-02T04:55:04;63.88;;;31.80;;
8044;SDS011;4065;48.754;9.982;2024-03-02T04:58:45;63.95;;;32.53;;
8044;SDS011;4065;48.754;9.982;2024-03-02T05:02:07;61.40;;;30.80;;
8044;SDS011;4065;48.754;9.982;2024-03-02T05:05:29;67.78;;;33.55;;
8044;SDS011;4065;48.754;9.982;2024-03-02T05:08:51;58.38;;;30.67;;
8044;SDS011;4065;48.754;9.982;2024-03-02T05:12:14;58.58;;;31.90;;
8044;SDS011;4065;48.754;9.982;2024-03-02T05:16:04;56.72;;;31.38;;
8044;SDS011;4065;48.754;9.982;2024-03-02T05:19:26;59.90;;;31.55;;
8044;SDS011;4065;48.754;9.982;2024-03-02T05:22:48;50.22;;;28.23;;
8044;SDS011;4065;48.754;9.982;2024-03-02T05:26:10;53.65;;;29.48;;
8044;SDS011;4065;48.754;9.982;2024-03-02T05:29:34;62.22;;;32.65;;
8044;SDS011;4065;48.754;9.982;2024-03-02T05:32:56;55.30;;;31.38;;
8044;SDS011;4065;48.754;9.982;2024-03-02T05:36:18;46.80;;;27.98;;
8044;SDS011;4065;48.754;9.982;2024-03-02T05:39:41;48.95;;;27.90;;
8044;SDS011;4065;48.754;9.982;2024-03-02T05:43:03;47.13;;;27.30;;
8044;SDS011;4065;48.754;9.982;2024-03-02T05:46:29;53.03;;;28.50;;
8044;SDS011;4065;48.754;9.982;2024-03-02T05:49:51;45.33;;;27.23;;
8044;SDS011;4065;48.754;9.982;2024-03-02T05:53:13;57.70;;;29.42;;
8044;SDS011;4065;48.754;9.982;2024-03-02T05:56:36;52.78;;;27.85;;
8044;SDS011;4065;48.754;9.982;2024-03-02T05:59:58;164.10;;;32.70;;
8044;SDS011;4065;48.754;9.982;2024-03-02T06:03:21;131.68;;;47.03;;
8044;SDS011;4065;48.754;9.982;2024-03-02T06:06:43;135.07;;;45.22;;
8044;SDS011;4065;48.754;9.982;2024-03-02T06:10:06;51.72;;;27.55;;
8044;SDS011;4065;48.754;9.982;2024-03-02T06:13:29;72.45;;;28.20;;
8044;SDS011;4065;48.754;9.982;2024-03-02T06:16:51;52.08;;;27.95;;
8044;SDS011;4065;48.754;9.982;2024-03-02T06:20:16;102.25;;;29.90;;
8044;SDS011;4065;48.754;9.982;2024-03-02T06:23:41;86.47;;;28.58;;
8044;SDS011;4065;48.754;9.982;2024-03-02T06:27:03;51.63;;;26.05;;
8044;SDS011;4065;48.754;9.982;2024-03-02T06:30:26;50.92;;;27.20;;
8044;SDS011;4065;48.754;9.982;2024-03-02T06:33:48;53.50;;;28.65;;
8044;SDS011;4065;48.754;9.982;2024-03-02T06:37:11;46.80;;;26.05;;
8044;SDS011;4065;48.754;9.982;2024-03-02T06:40:34;43.67;;;26.42;;
8044;SDS011;4065;48.754;9.982;2024-03-02T06:43:58;53.33;;;28.40;;
8044;SDS011;4065;48.754;9.982;2024-03-02T06:47:20;45.08;;;25.95;;
8044;SDS011;4065;48.754;9.982;2024-03-02T06:50:42;51.45;;;27.23;;
8044;SDS011;4065;48.754;9.982;2024-03-02T06:54:06;48.83;;;27.35;;
8044;SDS011;4065;48.754;9.982;2024-03-02T06:57:27;48.72;;;27.40;;
8044;SDS011;4065;48.754;9.982;2024-03-02T07:00:50;44.10;;;26.27;;
8044;SDS011;4065;48.754;9.982;2024-03-02T07:04:13;43.95;;;25.13;;
8044;SDS011;4065;48.754;9.982;2024-03-02T07:07:36;41.70;;;26.52;;
8044;SDS011;4065;48.754;9.982;2024-03-02T07:11:00;42.28;;;26.38;;
8044;SDS011;4065;48.754;9.982;2024-03-02T07:14:25;44.17;;;26.20;;
8044;SDS011;4065;48.754;9.982;2024-03-02T07:18:07;42.22;;;24.85;;
8044;SDS011;4065;48.754;9.982;2024-03-02T07:21:29;38.08;;;23.25;;
8044;SDS011;4065;48.754;9.982;2024-03-02T07:24:52;40.38;;;26.25;;
8044;SDS011;4065;48.754;9.982;2024-03-02T07:28:16;45.80;;;28.63;;
8044;SDS011;4065;48.754;9.982;2024-03-02T07:31:38;37.15;;;25.33;;
8044;SDS011;4065;48.754;9.982;2024-03-02T07:35:00;37.47;;;23.95;;
8044;SDS011;4065;48.754;9.982;2024-03-02T07:38:24;33.03;;;22.23;;
8044;SDS011;4065;48.754;9.982;2024-03-02T07:41:46;33.55;;;20.38;;
8044;SDS011;4065;48.754;9.982;2024-03-02T07:45:09;32.30;;;21.17;;
8044;SDS011;4065;48.754;9.982;2024-03-02T07:48:31;34.35;;;21.60;;
8044;SDS011;4065;48.754;9.982;2024-03-02T07:51:53;31.70;;;20.77;;
8044;SDS011;4065;48.754;9.982;2024-03-02T07:55:18;31.05;;;21.00;;
8044;SDS011;4065;48.754;9.982;2024-03-02T07:58:42;25.70;;;18.52;;
8044;SDS011;4065;48.754;9.982;2024-03-02T08:02:07;30.80;;;22.27;;
8044;SDS011;4065;48.754;9.982;2024-03-02T08:05:29;28.58;;;20.67;;
8044;SDS011;4065;48.754;9.982;2024-03-02T08:08:51;29.40;;;22.05;;
8044;SDS011;4065;48.754;9.982;2024-03-02T08:12:13;28.20;;;20.67;;
8044;SDS011;4065;48.754;9.982;2024-03-02T08:15:36;28.88;;;21.23;;
8044;SDS011;4065;48.754;9.982;2024-03-02T08:18:59;28.77;;;21.70;;
8044;SDS011;4065;48.754;9.982;2024-03-02T08:22:21;30.27;;;21.60;;
8044;SDS011;4065;48.754;9.982;2024-03-02T08:25:43;27.00;;;19.15;;
8044;SDS011;4065;48.754;9.982;2024-03-02T08:29:05;23.90;;;17.05;;
8044;SDS011;4065;48.754;9.982;2024-03-02T08:32:27;23.30;;;17.45;;
8044;SDS011;4065;48.754;9.982;2024-03-02T08:35:50;22.50;;;16.80;;
8044;SDS011;4065;48.754;9.982;2024-03-02T08:39:12;27.35;;;19.45;;
8044;SDS011;4065;48.754;9.982;2024-03-02T08:42:35;25.45;;;19.15;;
8044;SDS011;4065;48.754;9.982;2024-03-02T08:45:57;28.33;;;19.33;;
8044;SDS011;4065;48.754;9.982;2024-03-02T08:49:20;23.23;;;18.20;;
8044;SDS011;4065;48.754;9.982;2024-03-02T08:52:48;21.48;;;16.00;;
8044;SDS011;4065;48.754;9.982;2024-03-02T08:56:10;21.25;;;15.68;;
8044;SDS011;4065;48.754;9.982;2024-03-02T08:59:33;18.17;;;13.85;;
8044;SDS011;4065;48.754;9.982;2024-03-02T09:02:55;19.35;;;14.80;;
8044;SDS011;4065;48.754;9.982;2024-03-02T09:06:17;16.88;;;13.00;;
8044;SDS011;4065;48.754;9.982;2024-03-02T09:09:42;16.02;;;11.95;;
8044;SDS011;4065;48.754;9.982;2024-03-02T09:13:05;15.50;;;12.00;;
8044;SDS011;4065;48.754;9.982;2024-03-02T09:16:27;14.55;;;11.90;;
8044;SDS011;4065;48.754;9.982;2024-03-02T09:19:51;13.18;;;11.60;;
8044;SDS011;4065;48.754;9.982;2024-03-02T09:23:13;13.50;;;11.55;;
8044;SDS011;4065;48.754;9.982;2024-03-02T09:26:37;12.68;;;9.93;;
8044;SDS011;4065;48.754;9.982;2024-03-02T09:29:59;10.50;;;9.38;;
8044;SDS011;4065;48.754;9.982;2024-03-02T09:33:21;11.35;;;10.02;;
8044;SDS011;4065;48.754;9.982;2024-03-02T09:36:43;13.02;;;10.30;;
8044;SDS011;4065;48.754;9.982;2024-03-02T09:40:06;13.02;;;10.07;;
8044;SDS011;4065;48.754;9.982;2024-03-02T09:43:30;11.45;;;10.25;;
8044;SDS011;4065;48.754;9.982;2024-03-02T09:46:53;13.32;;;9.38;;
8044;SDS011;4065;48.754;9.982;2024-03-02T09:50:15;11.60;;;9.60;;
8044;SDS011;4065;48.754;9.982;2024-03-02T09:53:37;11.25;;;9.35;;
8044;SDS011;4065;48.754;9.982;2024-03-02T09:56:59;8.02;;;7.07;;
8044;SDS011;4065;48.754;9.982;2024-03-02T10:00:23;8.52;;;7.68;;
8044;SDS011;4065;48.754;9.982;2024-03-02T10:03:45;10.27;;;7.82;;
8044;SDS011;4065;48.754;9.982;2024-03-02T10:07:11;8.35;;;6.97;;
8044;SDS011;4065;48.754;9.982;2024-03-02T10:10:34;8.27;;;7.35;;
8044;SDS011;4065;48.754;9.982;2024-03-02T10:14:07;8.85;;;7.47;;
8044;SDS011;4065;48.754;9.982;2024-03-02T10:17:32;9.18;;;7.85;;
8044;SDS011;4065;48.754;9.982;2024-03-02T10:20:54;9.43;;;7.05;;
8044;SDS011;4065;48.754;9.982;2024-03-02T10:24:16;11.23;;;7.80;;
8044;SDS011;4065;48.754;9.982;2024-03-02T10:27:38;8.40;;;7.55;;
8044;SDS011;4065;48.754;9.982;2024-03-02T10:31:00;9.20;;;7.00;;
8044;SDS011;4065;48.754;9.982;2024-03-02T10:34:23;7.97;;;7.13;;
8044;SDS011;4065;48.754;9.982;2024-03-02T10:37:45;9.13;;;7.03;;
8044;SDS011;4065;48.754;9.982;2024-03-02T10:41:08;7.30;;;6.45;;
8044;SDS011;4065;48.754;9.982;2024-03-02T10:44:30;8.85;;;6.90;;
8044;SDS011;4065;48.754;9.982;2024-03-02T10:47:53;8.85;;;6.85;;
8044;SDS011;4065;48.754;9.982;2024-03-02T10:51:17;7.05;;;6.30;;
8044;SDS011;4065;48.754;9.982;2024-03-02T10:54:39;6.70;;;6.03;;
8044;SDS011;4065;48.754;9.982;2024-03-02T10:58:01;8.32;;;6.07;;
8044;SDS011;4065;48.754;9.982;2024-03-02T11:01:27;8.27;;;6.72;;
8044;SDS011;4065;48.754;9.982;2024-03-02T11:04:51;9.45;;;7.78;;
8044;SDS011;4065;48.754;9.982;2024-03-02T11:08:18;8.65;;;7.38;;
8044;SDS011;4065;48.754;9.982;2024-03-02T11:11:42;10.25;;;7.70;;
8044;SDS011;4065;48.754;9.982;2024-03-02T11:15:07;8.15;;;7.28;;
8044;SDS011;4065;48.754;9.982;2024-03-02T11:18:32;7.95;;;6.70;;
8044;SDS011;4065;48.754;9.982;2024-03-02T11:21:56;7.38;;;6.68;;
8044;SDS011;4065;48.754;9.982;2024-03-02T11:25:24;9.45;;;7.22;;
8044;SDS011;4065;48.754;9.982;2024-03-02T11:28:46;7.43;;;6.65;;
8044;SDS011;4065;48.754;9.982;2024-03-02T11:32:13;6.90;;;5.97;;
8044;SDS011;4065;48.754;9.982;2024-03-02T11:35:36;6.63;;;6.00;;
8044;SDS011;4065;48.754;9.982;2024-03-02T11:38:58;8.32;;;6.22;;
8044;SDS011;4065;48.754;9.982;2024-03-02T11:42:21;5.68;;;5.07;;
8044;SDS011;4065;48.754;9.982;2024-03-02T11:45:43;6.22;;;5.32;;
8044;SDS011;4065;48.754;9.982;2024-03-02T11:49:05;4.82;;;4.43;;
8044;SDS011;4065;48.754;9.982;2024-03-02T11:52:27;5.60;;;4.63;;
8044;SDS011;4065;48.754;9.982;2024-03-02T11:55:50;5.93;;;4.38;;
8044;SDS011;4065;48.754;9.982;2024-03-02T11:59:15;4.78;;;4.28;;
8044;SDS011;4065;48.754;9.982;2024-03-02T12:02:37;5.18;;;4.68;;
8044;SDS011;4065;48.754;9.982;2024-03-02T12:06:02;5.20;;;4.00;;
8044;SDS011;4065;48.754;9.982;2024-03-02T12:09:24;4.25;;;3.72;;
8044;SDS011;4065;48.754;9.982;2024-03-02T12:12:47;3.85;;;3.22;;
8044;SDS011;4065;48.754;9.982;2024-03-02T12:16:10;3.72;;;2.80;;
8044;SDS011;4065;48.754;9.982;2024-03-02T12:19:32;3.13;;;2.85;;
8044;SDS011;4065;48.754;9.982;2024-03-02T12:22:55;4.68;;;2.92;;
8044;SDS011;4065;48.754;9.982;2024-03-02T12:26:17;3.53;;;3.22;;
8044;SDS011;4065;48.754;9.982;2024-03-02T12:29:40;4.32;;;3.70;;
8044;SDS011;4065;48.754;9.982;2024-03-02T12:33:04;3.22;;;2.90;;
8044;SDS011;4065;48.754;9.982;2024-03-02T12:36:26;4.05;;;3.35;;
8044;SDS011;4065;48.754;9.982;2024-03-02T12:39:50;4.97;;;4.35;;
8044;SDS011;4065;48.754;9.982;2024-03-02T12:43:14;5.88;;;3.80;;
8044;SDS011;4065;48.754;9.982;2024-03-02T12:46:36;4.13;;;3.72;;
8044;SDS011;4065;48.754;9.982;2024-03-02T12:49:59;4.43;;;4.03;;
8044;SDS011;4065;48.754;9.982;2024-03-02T12:53:21;5.15;;;3.80;;
8044;SDS011;4065;48.754;9.982;2024-03-02T12:56:44;4.38;;;3.92;;
8044;SDS011;4065;48.754;9.982;2024-03-02T13:00:08;4.03;;;3.63;;
8044;SDS011;4065;48.754;9.982;2024-03-02T13:03:30;4.20;;;3.80;;
8044;SDS011;4065;48.754;9.982;2024-03-02T13:06:54;3.40;;;3.10;;
8044;SDS011;4065;48.754;9.982;2024-03-02T13:10:17;3.95;;;2.90;;
8044;SDS011;4065;48.754;9.982;2024-03-02T13:13:39;3.38;;;3.08;;
8044;SDS011;4065;48.754;9.982;2024-03-02T13:17:01;3.00;;;2.80;;
8044;SDS011;4065;48.754;9.982;2024-03-02T13:20:26;4.25;;;3.42;;
8044;SDS011;4065;48.754;9.982;2024-03-02T13:23:53;3.70;;;3.40;;
8044;SDS011;4065;48.754;9.982;2024-03-02T13:27:15;3.15;;;2.88;;
8044;SDS011;4065;48.754;9.982;2024-03-02T13:30:39;4.10;;;3.00;;
8044;SDS011;4065;48.754;9.982;2024-03-02T13:34:01;3.30;;;3.00;;
8044;SDS011;4065;48.754;9.982;2024-03-02T13:37:23;3.42;;;3.13;;
8044;SDS011;4065;48.754;9.982;2024-03-02T13:40:47;4.32;;;3.92;;
8044;SDS011;4065;48.754;9.982;2024-03-02T13:44:11;4.05;;;3.65;;
8044;SDS011;4065;48.754;9.982;2024-03-02T13:47:33;6.13;;;4.40;;
8044;SDS011;4065;48.754;9.982;2024-03-02T13:50:58;6.18;;;5.57;;
8044;SDS011;4065;48.754;9.982;2024-03-02T13:54:20;7.70;;;5.40;;
8044;SDS011;4065;48.754;9.982;2024-03-02T13:57:43;5.35;;;4.75;;
8044;SDS011;4065;48.754;9.982;2024-03-02T14:01:05;5.00;;;4.50;;
8044;SDS011;4065;48.754;9.982;2024-03-02T14:04:27;5.78;;;5.20;;
8044;SDS011;4065;48.754;9.982;2024-03-02T14:07:49;5.90;;;5.30;;
8044;SDS011;4065;48.754;9.982;2024-03-02T14:11:11;4.50;;;4.10;;
8044;SDS011;4065;48.754;9.982;2024-03-02T14:14:38;5.65;;;5.13;;
8044;SDS011;4065;48.754;9.982;2024-03-02T14:18:00;6.15;;;5.55;;
8044;SDS011;4065;48.754;9.982;2024-03-02T14:21:22;5.72;;;5.13;;
8044;SDS011;4065;48.754;9.982;2024-03-02T14:24:44;5.43;;;4.93;;
8044;SDS011;4065;48.754;9.982;2024-03-02T14:28:07;5.75;;;5.15;;
8044;SDS011;4065;48.754;9.982;2024-03-02T14:31:30;6.88;;;4.78;;
8044;SDS011;4065;48.754;9.982;2024-03-02T14:34:56;6.28;;;5.68;;
8044;SDS011;4065;48.754;9.982;2024-03-02T14:38:18;7.78;;;6.28;;
8044;SDS011;4065;48.754;9.982;2024-03-02T14:41:40;6.88;;;6.28;;
8044;SDS011;4065;48.754;9.982;2024-03-02T14:45:02;7.40;;;6.53;;
8044;SDS011;4065;48.754;9.982;2024-03-02T14:48:26;6.65;;;5.90;;
8044;SDS011;4065;48.754;9.982;2024-03-02T14:51:48;6.88;;;6.05;;
8044;SDS011;4065;48.754;9.982;2024-03-02T14:55:10;7.25;;;5.97;;
8044;SDS011;4065;48.754;9.982;2024-03-02T14:58:33;6.30;;;5.38;;
8044;SDS011;4065;48.754;9.982;2024-03-02T15:01:55;6.18;;;5.57;;
8044;SDS011;4065;48.754;9.982;2024-03-02T15:05:19;7.13;;;6.43;;
8044;SDS011;4065;48.754;9.982;2024-03-02T15:08:41;11.20;;;9.73;;
8044;SDS011;4065;48.754;9.982;2024-03-02T15:12:03;15.98;;;10.55;;
8044;SDS011;4065;48.754;9.982;2024-03-02T15:15:26;9.88;;;7.05;;
8044;SDS011;4065;48.754;9.982;2024-03-02T15:18:48;10.10;;;7.35;;
8044;SDS011;4065;48.754;9.982;2024-03-02T15:22:11;9.20;;;7.55;;
8044;SDS011;4065;48.754;9.982;2024-03-02T15:25:33;8.82;;;7.85;;
8044;SDS011;4065;48.754;9.982;2024-03-02T15:28:55;8.85;;;7.68;;
8044;SDS011;4065;48.754;9.982;2024-03-02T15:32:19;8.80;;;7.80;;
8044;SDS011;4065;48.754;9.982;2024-03-02T15:35:41;10.55;;;9.40;;
8044;SDS011;4065;48.754;9.982;2024-03-02T15:39:04;12.57;;;8.27;;
8044;SDS011;4065;48.754;9.982;2024-03-02T15:42:29;11.25;;;9.18;;
8044;SDS011;4065;48.754;9.982;2024-03-02T15:45:51;11.90;;;9.38;;
8044;SDS011;4065;48.754;9.982;2024-03-02T15:49:13;12.20;;;9.70;;
8044;SDS011;4065;48.754;9.982;2024-03-02T15:52:35;11.82;;;9.52;;
8044;SDS011;4065;48.754;9.982;2024-03-02T15:55:58;13.77;;;10.18;;
8044;SDS011;4065;48.754;9.982;2024-03-02T15:59:20;12.57;;;10.80;;
8044;SDS011;4065;48.754;9.982;2024-03-02T16:02:42;13.40;;;10.77;;
8044;SDS011;4065;48.754;9.982;2024-03-02T16:06:04;17.70;;;12.10;;
8044;SDS011;4065;48.754;9.982;2024-03-02T16:09:26;24.52;;;16.65;;
8044;SDS011;4065;48.754;9.982;2024-03-02T16:12:50;19.27;;;15.15;;
8044;SDS011;4065;48.754;9.982;2024-03-02T16:16:12;24.55;;;15.85;;
8044;SDS011;4065;48.754;9.982;2024-03-02T16:19:34;22.83;;;15.25;;
8044;SDS011;4065;48.754;9.982;2024-03-02T16:22:59;22.13;;;15.35;;
8044;SDS011;4065;48.754;9.982;2024-03-02T16:26:21;22.77;;;15.48;;
8044;SDS011;4065;48.754;9.982;2024-03-02T16:29:45;22.50;;;15.35;;
8044;SDS011;4065;48.754;9.982;2024-03-02T16:33:08;22.95;;;16.10;;
8044;SDS011;4065;48.754;9.982;2024-03-02T16:36:29;22.67;;;16.35;;
8044;SDS011;4065;48.754;9.982;2024-03-02T16:39:54;22.55;;;15.57;;
8044;SDS011;4065;48.754;9.982;2024-03-02T16:43:17;23.67;;;16.42;;
8044;SDS011;4065;48.754;9.982;2024-03-02T16:46:40;27.55;;;17.75;;
8044;SDS011;4065;48.754;9.982;2024-03-02T16:50:02;23.95;;;17.13;;
8044;SDS011;4065;48.754;9.982;2024-03-02T16:53:28;30.15;;;18.58;;
8044;SDS011;4065;48.754;9.982;2024-03-02T16:56:50;33.20;;;20.10;;
8044;SDS011;4065;48.754;9.982;2024-03-02T17:00:13;30.90;;;20.63;;
8044;SDS011;4065;48.754;9.982;2024-03-02T17:03:37;30.58;;;20.60;;
8044;SDS011;4065;48.754;9.982;2024-03-02T17:06:59;32.45;;;21.00;;
8044;SDS011;4065;48.754;9.982;2024-03-02T17:10:21;35.22;;;22.48;;
8044;SDS011;4065;48.754;9.982;2024-03-02T17:13:43;39.60;;;23.65;;
8044;SDS011;4065;48.754;9.982;2024-03-02T17:17:05;33.03;;;23.55;;
8044;SDS011;4065;48.754;9.982;2024-03-02T17:20:29;32.38;;;21.60;;
8044;SDS011;4065;48.754;9.982;2024-03-02T17:23:51;30.40;;;20.45;;
8044;SDS011;4065;48.754;9.982;2024-03-02T17:27:12;38.25;;;21.75;;
8044;SDS011;4065;48.754;9.982;2024-03-02T17:30:34;42.03;;;27.50;;
8044;SDS011;4065;48.754;9.982;2024-03-02T17:33:56;45.45;;;33.25;;
8044;SDS011;4065;48.754;9.982;2024-03-02T17:37:19;41.08;;;27.38;;
8044;SDS011;4065;48.754;9.982;2024-03-02T17:40:41;39.53;;;28.48;;
8044;SDS011;4065;48.754;9.982;2024-03-02T17:44:05;38.63;;;26.92;;
8044;SDS011;4065;48.754;9.982;2024-03-02T17:47:27;33.65;;;24.38;;
8044;SDS011;4065;48.754;9.982;2024-03-02T17:50:48;39.30;;;27.70;;
8044;SDS011;4065;48.754;9.982;2024-03-02T17:54:12;38.40;;;25.80;;
8044;SDS011;4065;48.754;9.982;2024-03-02T17:57:34;38.55;;;25.20;;
8044;SDS011;4065;48.754;9.982;2024-03-02T18:00:57;41.20;;;27.42;;
8044;SDS011;4065;48.754;9.982;2024-03-02T18:04:19;38.70;;;26.30;;
8044;SDS011;4065;48.754;9.982;2024-03-02T18:07:42;42.13;;;29.00;;
8044;SDS011;4065;48.754;9.982;2024-03-02T18:11:06;40.17;;;27.95;;
8044;SDS011;4065;48.754;9.982;2024-03-02T18:14:28;43.80;;;31.63;;
8044;SDS011;4065;48.754;9.982;2024-03-02T18:17:51;46.00;;;30.95;;
8044;SDS011;4065;48.754;9.982;2024-03-02T18:21:14;47.42;;;30.48;;
8044;SDS011;4065;48.754;9.982;2024-03-02T18:24:36;49.03;;;30.13;;
8044;SDS011;4065;48.754;9.982;2024-03-02T18:27:59;52.10;;;31.00;;
8044;SDS011;4065;48.754;9.982;2024-03-02T18:31:21;51.42;;;30.77;;
8044;SDS011;4065;48.754;9.982;2024-03-02T18:34:43;49.58;;;30.95;;
8044;SDS011;4065;48.754;9.982;2024-03-02T18:38:07;49.88;;;31.17;;
8044;SDS011;4065;48.754;9.982;2024-03-02T18:41:29;56.30;;;32.20;;
8044;SDS011;4065;48.754;9.982;2024-03-02T18:44:52;49.33;;;31.80;;
8044;SDS011;4065;48.754;9.982;2024-03-02T18:48:14;50.35;;;31.67;;
8044;SDS011;4065;48.754;9.982;2024-03-02T18:51:36;49.40;;;31.75;;
8044;SDS011;4065;48.754;9.982;2024-03-02T18:55:00;50.90;;;30.42;;
8044;SDS011;4065;48.754;9.982;2024-03-02T18:58:23;51.40;;;32.70;;
8044;SDS011;4065;48.754;9.982;2024-03-02T19:01:47;48.80;;;30.58;;
8044;SDS011;4065;48.754;9.982;2024-03-02T19:05:09;51.67;;;31.38;;
8044;SDS011;4065;48.754;9.982;2024-03-02T19:08:31;46.70;;;30.25;;
8044;SDS011;4065;48.754;9.982;2024-03-02T19:11:53;50.75;;;31.80;;
8044;SDS011;4065;48.754;9.982;2024-03-02T19:15:15;45.83;;;31.25;;
8044;SDS011;4065;48.754;9.982;2024-03-02T19:18:39;45.22;;;29.70;;
8044;SDS011;4065;48.754;9.982;2024-03-02T19:22:01;48.60;;;30.27;;
8044;SDS011;4065;48.754;9.982;2024-03-02T19:25:23;50.10;;;30.63;;
8044;SDS011;4065;48.754;9.982;2024-03-02T19:28:45;49.85;;;28.63;;
8044;SDS011;4065;48.754;9.982;2024-03-02T19:32:07;49.28;;;30.60;;
8044;SDS011;4065;48.754;9.982;2024-03-02T19:35:31;51.00;;;30.20;;
8044;SDS011;4065;48.754;9.982;2024-03-02T19:38:52;54.95;;;32.08;;
8044;SDS011;4065;48.754;9.982;2024-03-02T19:42:15;49.25;;;32.15;;
8044;SDS011;4065;48.754;9.982;2024-03-02T19:45:37;50.33;;;31.08;;
8044;SDS011;4065;48.754;9.982;2024-03-02T19:48:59;57.65;;;33.42;;
8044;SDS011;4065;48.754;9.982;2024-03-02T19:52:23;53.08;;;33.38;;
8044;SDS011;4065;48.754;9.982;2024-03-02T19:55:44;61.33;;;34.28;;
8044;SDS011;4065;48.754;9.982;2024-03-02T19:59:07;52.05;;;31.65;;
8044;SDS011;4065;48.754;9.982;2024-03-02T20:02:30;56.90;;;32.70;;
8044;SDS011;4065;48.754;9.982;2024-03-02T20:05:52;56.85;;;32.85;;
8044;SDS011;4065;48.754;9.982;2024-03-02T20:09:16;58.95;;;34.38;;
8044;SDS011;4065;48.754;9.982;2024-03-02T20:12:37;63.58;;;35.55;;
8044;SDS011;4065;48.754;9.982;2024-03-02T20:15:59;61.80;;;34.03;;
8044;SDS011;4065;48.754;9.982;2024-03-02T20:19:21;60.45;;;34.80;;
8044;SDS011;4065;48.754;9.982;2024-03-02T20:22:43;62.00;;;36.20;;
8044;SDS011;4065;48.754;9.982;2024-03-02T20:26:07;65.43;;;36.35;;
8044;SDS011;4065;48.754;9.982;2024-03-02T20:29:29;63.90;;;35.67;;
8044;SDS011;4065;48.754;9.982;2024-03-02T20:32:51;62.30;;;34.33;;